Time;durP1;ratioP1;P1;durP2;ratioP2;P2;SDS_P1;SDS_P2;PMS_P1;PMS_P2;Temp;Humidity;BMP_temperature;BMP_pressure;BME280_temperature;BME280_humidity;BME280_pressure;Samples;Min_cycle;Max_cycle;Signal;HPM_P1;HPM_P2
2024/02/17 00:00:21;;;;;;;;;;;;;;;-7.79;100.00;101816.91;109244;1253;60878;-53
2024/02/17 00:02:49;;;;;;;;;;;;;;;-7.82;100.00;101822.86;109269;1252;60107;-54
2024/02/17 00:05:16;;;;;;;;;;;;;;;-7.83;100.00;101819.69;109262;1253;73640;-60
2024/02/17 00:07:44;;;;;;;;;;;;;;;-7.85;100.00;101811.95;109268;1253;67345;-53
2024/02/17 00:10:11;;;;;;;;;;;;;;;-7.89;100.00;101814.55;109257;1253;72712;-52
2024/02/17 00:12:39;;;;;;;;;;;;;;;-7.92;100.00;101811.74;109240;1254;61732;-53
2024/02/17 00:15:07;;;;;;;;;;;;;;;-7.95;100.00;101818.38;109385;1252;60262;-55
2024/02/17 00:17:34;;;;;;;;;;;;;;;-7.99;100.00;101818.95;109213;1253;74199;-53
2024/02/17 00:20:03;;;;;;;;;;;;;;;-8.02;100.00;101816.31;109268;1253;66950;-54
2024/02/17 00:22:31;;;;;;;;;;;;;;;-8.05;100.00;101819.73;109241;1254;70475;-53
2024/02/17 00:24:58;;;;;;;;;;;;;;;-8.09;100.00;101820.29;109297;1253;61778;-53
2024/02/17 00:27:26;;;;;;;;;;;;;;;-8.11;100.00;101817.30;109326;1252;59970;-54
2024/02/17 00:29:53;;;;;;;;;;;;;;;-8.14;100.00;101822.05;109218;1253;74782;-58
2024/02/17 00:32:21;;;;;;;;;;;;;;;-8.17;100.00;101817.89;109287;1253;67521;-53
2024/02/17 00:34:48;;;;;;;;;;;;;;;-8.19;100.00;101817.59;109281;1253;73223;-53
2024/02/17 00:37:16;;;;;;;;;;;;;;;-8.21;100.00;101814.09;109227;1253;60544;-54
2024/02/17 00:39:43;;;;;;;;;;;;;;;-8.24;100.00;101812.12;109202;1252;60255;-54
2024/02/17 00:42:11;;;;;;;;;;;;;;;-8.27;100.00;101809.46;109274;1253;75574;-53
2024/02/17 00:44:38;;;;;;;;;;;;;;;-8.30;100.00;101811.03;109300;1253;67431;-54
2024/02/17 00:47:06;;;;;;;;;;;;;;;-8.33;100.00;101809.73;109364;1252;73035;-52
2024/02/17 00:49:33;;;;;;;;;;;;;;;-8.35;100.00;101815.82;109300;1252;60472;-54
2024/02/17 00:52:01;;;;;;;;;;;;;;;-8.35;100.00;101815.33;109265;1253;59865;-53
2024/02/17 00:54:28;;;;;;;;;;;;;;;-8.38;100.00;101815.38;109383;1252;74225;-53
2024/02/17 00:56:56;;;;;;;;;;;;;;;-8.38;100.00;101812.03;109285;1253;67203;-53
2024/02/17 00:59:24;;;;;;;;;;;;;;;-8.39;100.00;101808.16;109245;1253;72713;-54
2024/02/17 01:01:51;;;;;;;;;;;;;;;-8.41;100.00;101803.98;109231;1252;62170;-53
2024/02/17 01:04:19;;;;;;;;;;;;;;;-8.42;100.00;101808.73;109275;1253;60270;-53
2024/02/17 01:06:46;;;;;;;;;;;;;;;-8.44;100.00;101804.04;109306;1253;74709;-52
2024/02/17 01:09:16;;;;;;;;;;;;;;;-8.46;100.00;101803.55;109263;1253;65628;-54
2024/02/17 01:11:44;;;;;;;;;;;;;;;-8.47;100.00;101797.69;109206;1255;73212;-54
2024/02/17 01:14:12;;;;;;;;;;;;;;;-8.48;100.00;101800.39;109272;1253;59743;-53
2024/02/17 01:16:40;;;;;;;;;;;;;;;-8.51;100.00;101803.13;109276;1252;60235;-54
2024/02/17 01:19:07;;;;;;;;;;;;;;;-8.53;100.00;101796.58;109269;1253;74257;-53
2024/02/17 01:21:35;;;;;;;;;;;;;;;-8.55;100.00;101795.10;109198;1253;66113;-55
2024/02/17 01:24:04;;;;;;;;;;;;;;;-8.57;100.00;101798.31;109166;1253;71418;-53
2024/02/17 01:26:31;;;;;;;;;;;;;;;-8.57;100.00;101795.12;109167;1253;61703;-54
2024/02/17 01:28:59;;;;;;;;;;;;;;;-8.59;100.00;101794.16;109224;1253;59879;-54
2024/02/17 01:31:26;;;;;;;;;;;;;;;-8.61;100.00;101798.05;109284;1253;75519;-52
2024/02/17 01:33:54;;;;;;;;;;;;;;;-8.62;100.00;101799.59;109219;1254;66137;-55
2024/02/17 01:36:21;;;;;;;;;;;;;;;-8.61;100.00;101796.88;109313;1252;72658;-54
2024/02/17 01:38:49;;;;;;;;;;;;;;;-8.63;100.00;101794.70;109216;1255;62171;-53
2024/02/17 01:41:16;;;;;;;;;;;;;;;-8.66;100.00;101797.13;109403;1252;59875;-53
2024/02/17 01:43:44;;;;;;;;;;;;;;;-8.69;100.00;101795.14;109244;1254;74227;-53
2024/02/17 01:46:12;;;;;;;;;;;;;;;-8.71;100.00;101795.34;109234;1253;66909;-54
2024/02/17 01:48:39;;;;;;;;;;;;;;;-8.70;100.00;101799.88;109214;1253;72807;-53
2024/02/17 01:51:09;;;;;;;;;;;;;;;-8.72;100.00;101791.64;109258;1252;60437;-54
2024/02/17 01:53:38;;;;;;;;;;;;;;;-8.74;100.00;101792.52;109406;1252;59928;-53
2024/02/17 01:56:06;;;;;;;;;;;;;;;-8.73;100.00;101793.36;109200;1253;74248;-53
2024/02/17 01:58:33;;;;;;;;;;;;;;;-8.74;100.00;101790.52;109359;1252;66358;-53
2024/02/17 02:01:01;;;;;;;;;;;;;;;-8.75;100.00;101798.94;109355;1252;71236;-53
2024/02/17 02:03:28;;;;;;;;;;;;;;;-8.78;100.00;101792.23;109262;1253;60455;-53
2024/02/17 02:05:57;;;;;;;;;;;;;;;-8.80;100.00;101795.30;109225;1253;59906;-53
2024/02/17 02:08:24;;;;;;;;;;;;;;;-8.82;100.00;101796.68;109281;1253;75907;-52
2024/02/17 02:10:54;;;;;;;;;;;;;;;-8.82;100.00;101789.77;109259;1253;66954;-53
2024/02/17 02:13:22;;;;;;;;;;;;;;;-8.83;100.00;101797.19;109239;1253;72732;-53
2024/02/17 02:15:49;;;;;;;;;;;;;;;-8.84;100.00;101799.73;109186;1253;61914;-60
2024/02/17 02:18:21;;;;;;;;;;;;;;;-8.85;100.00;101801.61;109240;1253;60337;-54
2024/02/17 02:20:49;;;;;;;;;;;;;;;-8.87;100.00;101807.52;109262;1253;74190;-54
2024/02/17 02:23:17;;;;;;;;;;;;;;;-8.87;100.00;101807.86;109279;1253;66947;-53
2024/02/17 02:25:51;;;;;;;;;;;;;;;-8.88;100.00;101807.19;109218;1252;72795;-54
2024/02/17 02:28:19;;;;;;;;;;;;;;;-8.88;100.00;101810.06;109244;1253;61758;-53
2024/02/17 02:30:47;;;;;;;;;;;;;;;-8.89;100.00;101807.05;109289;1253;59780;-53
2024/02/17 02:33:14;;;;;;;;;;;;;;;-8.90;100.00;101808.92;109241;1253;75633;-53
2024/02/17 02:35:42;;;;;;;;;;;;;;;-8.91;100.00;101810.94;109266;1253;67096;-59
2024/02/17 02:38:10;;;;;;;;;;;;;;;-8.92;100.00;101811.13;109296;1253;71124;-54
2024/02/17 02:40:37;;;;;;;;;;;;;;;-8.91;100.00;101810.94;109217;1253;60865;-53
2024/02/17 02:43:05;;;;;;;;;;;;;;;-8.90;100.00;101817.34;109251;1252;59917;-53
2024/02/17 02:45:33;;;;;;;;;;;;;;;-8.92;100.00;101815.84;109249;1252;75568;-54
2024/02/17 02:48:01;;;;;;;;;;;;;;;-8.92;100.00;101820.06;109175;1255;64674;-53
2024/02/17 02:50:29;;;;;;;;;;;;;;;-8.92;100.00;101817.55;109198;1253;71779;-53
2024/02/17 02:52:56;;;;;;;;;;;;;;;-8.94;100.00;101817.23;109265;1253;61769;-54
2024/02/17 02:55:26;;;;;;;;;;;;;;;-8.94;100.00;101814.70;109273;1252;59817;-53
2024/02/17 02:57:54;;;;;;;;;;;;;;;-8.94;100.00;101815.53;109241;1253;74462;-54
2024/02/17 03:00:21;;;;;;;;;;;;;;;-8.96;100.00;101817.59;109321;1253;66975;-53
2024/02/17 03:02:49;;;;;;;;;;;;;;;-8.98;100.00;101813.56;109214;1253;72756;-53
2024/02/17 03:05:16;;;;;;;;;;;;;;;-8.99;100.00;101814.60;109214;1253;61754;-53
2024/02/17 03:07:44;;;;;;;;;;;;;;;-9.01;100.00;101813.28;109197;1252;60215;-54
2024/02/17 03:10:11;;;;;;;;;;;;;;;-9.01;100.00;101809.42;109261;1253;74252;-53
2024/02/17 03:12:39;;;;;;;;;;;;;;;-9.01;100.00;101807.73;109204;1253;65643;-54
2024/02/17 03:15:07;;;;;;;;;;;;;;;-9.01;100.00;101807.39;109229;1252;71540;-53
2024/02/17 03:17:36;;;;;;;;;;;;;;;-9.02;100.00;101811.27;109236;1253;61757;-54
2024/02/17 03:20:06;;;;;;;;;;;;;;;-9.02;100.00;101811.94;109233;1253;59819;-53
2024/02/17 03:22:34;;;;;;;;;;;;;;;-9.03;100.00;101809.42;109292;1253;75546;-52
2024/02/17 03:25:02;;;;;;;;;;;;;;;-9.05;100.00;101802.89;109239;1253;66241;-53
2024/02/17 03:27:30;;;;;;;;;;;;;;;-9.06;100.00;101799.35;109183;1253;72733;-54
2024/02/17 03:29:57;;;;;;;;;;;;;;;-9.07;100.00;101797.86;109163;1252;63896;-54
2024/02/17 03:32:26;;;;;;;;;;;;;;;-9.07;100.00;101799.54;109253;1253;59701;-53
2024/02/17 03:34:54;;;;;;;;;;;;;;;-9.08;100.00;101796.02;109197;1253;75573;-52
2024/02/17 03:37:21;;;;;;;;;;;;;;;-9.09;100.00;101796.20;109276;1253;66118;-53
2024/02/17 03:39:49;;;;;;;;;;;;;;;-9.11;100.00;101794.86;109211;1253;71445;-52
2024/02/17 03:42:17;;;;;;;;;;;;;;;-9.12;100.00;101796.58;109216;1253;61653;-52
2024/02/17 03:44:45;;;;;;;;;;;;;;;-9.14;100.00;101793.92;109246;1253;60578;-53
2024/02/17 03:47:12;;;;;;;;;;;;;;;-9.16;100.00;101796.64;109236;1253;77657;-53
2024/02/17 03:49:40;;;;;;;;;;;;;;;-9.18;100.00;101796.30;109314;1252;67019;-59
2024/02/17 03:52:08;;;;;;;;;;;;;;;-9.18;100.00;101797.67;109212;1253;71598;-59
2024/02/17 03:54:35;;;;;;;;;;;;;;;-9.19;100.00;101799.70;109330;1253;61730;-54
2024/02/17 03:57:04;;;;;;;;;;;;;;;-9.20;100.00;101805.77;109267;1253;60244;-53
2024/02/17 03:59:31;;;;;;;;;;;;;;;-9.20;100.00;101802.74;109274;1252;77458;-53
2024/02/17 04:01:59;;;;;;;;;;;;;;;-9.20;100.00;101801.56;109193;1253;65627;-52
2024/02/17 04:04:27;;;;;;;;;;;;;;;-9.20;100.00;101804.27;109292;1253;71391;-53
2024/02/17 04:06:55;;;;;;;;;;;;;;;-9.20;100.00;101810.66;109312;1252;60424;-54
2024/02/17 04:09:23;;;;;;;;;;;;;;;-9.20;100.00;101809.14;109317;1252;60393;-52
2024/02/17 04:11:51;;;;;;;;;;;;;;;-9.19;100.00;101802.74;109253;1253;75910;-53
2024/02/17 04:14:19;;;;;;;;;;;;;;;-9.19;100.00;101802.39;109214;1253;66947;-53
2024/02/17 04:16:46;;;;;;;;;;;;;;;-9.20;100.00;101806.11;109235;1253;71513;-53
2024/02/17 04:19:14;;;;;;;;;;;;;;;-9.20;100.00;101808.14;109228;1252;60447;-53
2024/02/17 04:21:43;;;;;;;;;;;;;;;-9.20;100.00;101807.98;109273;1253;59779;-54
2024/02/17 04:24:11;;;;;;;;;;;;;;;-9.19;100.00;101809.98;109190;1253;75453;-53
2024/02/17 04:26:39;;;;;;;;;;;;;;;-9.20;100.00;101812.02;109250;1253;66414;-53
2024/02/17 04:29:06;;;;;;;;;;;;;;;-9.20;100.00;101814.19;109222;1255;72768;-52
2024/02/17 04:31:34;;;;;;;;;;;;;;;-9.20;100.00;101808.14;109208;1253;61977;-53
2024/02/17 04:34:01;;;;;;;;;;;;;;;-9.19;100.00;101811.48;109260;1253;59897;-53
2024/02/17 04:36:29;;;;;;;;;;;;;;;-9.18;100.00;101812.48;109216;1253;75952;-53
2024/02/17 04:38:57;;;;;;;;;;;;;;;-9.17;100.00;101814.66;109250;1253;66978;-53
2024/02/17 04:41:24;;;;;;;;;;;;;;;-9.16;100.00;101816.32;109211;1255;72729;-53
2024/02/17 04:43:52;;;;;;;;;;;;;;;-9.14;100.00;101818.82;109235;1253;61785;-53
2024/02/17 04:46:19;;;;;;;;;;;;;;;-9.12;100.00;101820.48;109189;1252;60018;-56
2024/02/17 04:48:47;;;;;;;;;;;;;;;-9.10;100.00;101818.27;109239;1253;73225;-53
2024/02/17 04:51:14;;;;;;;;;;;;;;;-9.07;100.00;101818.40;109245;1253;66105;-52
2024/02/17 04:53:42;;;;;;;;;;;;;;;-9.01;100.00;101817.83;109264;1253;72716;-53
2024/02/17 04:56:09;;;;;;;;;;;;;;;-8.96;100.00;101823.65;109219;1253;60901;-53
2024/02/17 04:58:37;;;;;;;;;;;;;;;-8.89;100.00;101828.27;109227;1253;59910;-56
2024/02/17 05:01:05;;;;;;;;;;;;;;;-8.81;100.00;101831.36;109266;1253;75927;-53
2024/02/17 05:03:32;;;;;;;;;;;;;;;-8.73;100.00;101832.78;109243;1253;66667;-53
2024/02/17 05:06:00;;;;;;;;;;;;;;;-8.66;100.00;101834.54;109255;1253;70416;-53
2024/02/17 05:08:28;;;;;;;;;;;;;;;-8.58;100.00;101830.88;109209;1253;61885;-54
2024/02/17 05:10:55;;;;;;;;;;;;;;;-8.49;100.00;101830.06;109149;1253;59777;-54
2024/02/17 05:13:23;;;;;;;;;;;;;;;-8.40;100.00;101829.94;109272;1253;74187;-53
2024/02/17 05:15:50;;;;;;;;;;;;;;;-8.33;100.00;101824.39;109246;1253;65852;-53
2024/02/17 05:18:18;;;;;;;;;;;;;;;-8.23;100.00;101826.27;109190;1253;72717;-53
2024/02/17 05:20:46;;;;;;;;;;;;;;;-8.14;100.00;101827.45;109132;1253;61681;-57
2024/02/17 05:23:15;;;;;;;;;;;;;;;-8.05;100.00;101823.60;109206;1253;60546;-56
2024/02/17 05:25:42;;;;;;;;;;;;;;;-7.96;100.00;101824.29;109217;1253;75557;-53
2024/02/17 05:28:10;;;;;;;;;;;;;;;-7.86;100.00;101823.27;109264;1253;67459;-53
2024/02/17 05:30:37;;;;;;;;;;;;;;;-7.75;100.00;101828.30;109351;1253;72789;-56
2024/02/17 05:33:05;;;;;;;;;;;;;;;-7.63;100.00;101829.61;109205;1253;62244;-53
2024/02/17 05:35:32;;;;;;;;;;;;;;;-7.51;100.00;101829.56;109225;1253;59782;-54
2024/02/17 05:38:00;;;;;;;;;;;;;;;-7.39;100.00;101831.85;109259;1252;75541;-55
2024/02/17 05:40:27;;;;;;;;;;;;;;;-7.26;100.00;101828.56;109306;1252;66215;-53
2024/02/17 05:42:55;;;;;;;;;;;;;;;-7.07;100.00;101831.73;109246;1254;72853;-54
2024/02/17 05:45:22;;;;;;;;;;;;;;;-6.84;100.00;101836.33;109269;1254;59756;-53
2024/02/17 05:47:50;;;;;;;;;;;;;;;-6.67;100.00;101834.23;109376;1252;59707;-53
2024/02/17 05:50:18;;;;;;;;;;;;;;;-6.47;100.00;101835.84;109292;1252;74266;-54
2024/02/17 05:52:48;;;;;;;;;;;;;;;-6.17;100.00;101836.64;109360;1253;65703;-54
2024/02/17 05:55:16;;;;;;;;;;;;;;;-5.72;100.00;101839.71;109244;1253;72702;-53
2024/02/17 05:57:44;;;;;;;;;;;;;;;-5.22;100.00;101838.36;109239;1252;60937;-54
2024/02/17 06:00:11;;;;;;;;;;;;;;;-4.74;100.00;101834.41;109317;1252;59958;-54
2024/02/17 06:02:39;;;;;;;;;;;;;;;-4.32;100.00;101830.40;109265;1253;75542;-55
2024/02/17 06:05:07;;;;;;;;;;;;;;;-3.93;100.00;101826.44;109277;1253;65709;-55
2024/02/17 06:07:35;;;;;;;;;;;;;;;-3.52;100.00;101825.02;109301;1252;70253;-54
2024/02/17 06:10:04;;;;;;;;;;;;;;;-3.10;100.00;101821.47;109222;1253;61114;-55
2024/02/17 06:12:32;;;;;;;;;;;;;;;-2.79;100.00;101815.17;109204;1252;59773;-55
2024/02/17 06:15:00;;;;;;;;;;;;;;;-2.52;100.00;101812.94;109279;1252;74379;-54
2024/02/17 06:17:28;;;;;;;;;;;;;;;-2.31;100.00;101810.75;109263;1253;65530;-54
2024/02/17 06:22:41;;;;;;;;;;;;;;;-1.94;100.00;101811.27;109249;1254;59728;-55
2024/02/17 06:25:09;;;;;;;;;;;;;;;-1.85;100.00;101808.83;109244;1252;59862;-54
2024/02/17 06:27:37;;;;;;;;;;;;;;;-1.82;100.00;101802.39;109302;1252;76102;-55
2024/02/17 06:30:04;;;;;;;;;;;;;;;-1.83;100.00;101805.51;109391;1253;66997;-59
2024/02/17 06:32:32;;;;;;;;;;;;;;;-1.88;100.00;101800.61;109180;1253;72910;-55
2024/02/17 06:35:00;;;;;;;;;;;;;;;-1.87;100.00;101795.48;109296;1253;60163;-55
2024/02/17 06:37:28;;;;;;;;;;;;;;;-1.76;100.00;101798.06;109290;1253;60023;-54
2024/02/17 06:39:55;;;;;;;;;;;;;;;-1.68;100.00;101791.41;109270;1252;74234;-54
2024/02/17 06:42:23;;;;;;;;;;;;;;;-1.71;100.00;101784.19;109323;1253;66037;-54
2024/02/17 06:44:50;;;;;;;;;;;;;;;-1.65;100.00;101780.58;109293;1252;73200;-53
2024/02/17 06:47:19;;;;;;;;;;;;;;;-1.83;100.00;101786.10;109275;1253;59738;-53
2024/02/17 06:49:47;;;;;;;;;;;;;;;-2.32;100.00;101780.14;109207;1252;60284;-54
2024/02/17 06:52:14;;;;;;;;;;;;;;;-2.70;100.00;101779.95;109223;1253;75609;-53
2024/02/17 06:54:42;;;;;;;;;;;;;;;-3.06;100.00;101780.02;109168;1253;66996;-54
2024/02/17 06:57:09;;;;;;;;;;;;;;;-3.45;100.00;101780.73;109217;1253;72726;-55
2024/02/17 06:59:37;;;;;;;;;;;;;;;-3.70;100.00;101775.02;109239;1253;59776;-54
2024/02/17 07:02:05;;;;;;;;;;;;;;;-3.88;100.00;101779.71;109247;1253;59870;-54
2024/02/17 07:04:32;;;;;;;;;;;;;;;-4.08;100.00;101781.06;109198;1253;74502;-55
2024/02/17 07:07:00;;;;;;;;;;;;;;;-4.24;100.00;101776.88;109247;1253;66987;-54
2024/02/17 07:09:29;;;;;;;;;;;;;;;-4.35;100.00;101775.20;109214;1253;72450;-53
2024/02/17 07:11:57;;;;;;;;;;;;;;;-4.38;100.00;101773.76;109230;1253;60365;-55
2024/02/17 07:14:25;;;;;;;;;;;;;;;-4.45;100.00;101773.64;109237;1253;59825;-54
2024/02/17 07:16:54;;;;;;;;;;;;;;;-4.48;100.00;101778.49;109157;1253;75525;-53
2024/02/17 07:19:22;;;;;;;;;;;;;;;-4.38;100.00;101777.66;109186;1253;65252;-53
2024/02/17 07:21:49;;;;;;;;;;;;;;;-4.28;100.00;101775.64;109223;1253;72749;-53
2024/02/17 07:24:17;;;;;;;;;;;;;;;-4.25;100.00;101772.48;109283;1252;59718;-53
2024/02/17 07:26:44;;;;;;;;;;;;;;;-4.27;100.00;101771.52;109280;1253;59763;-54
2024/02/17 07:29:12;;;;;;;;;;;;;;;-4.32;100.00;101772.71;109252;1253;75691;-55
2024/02/17 07:31:40;;;;;;;;;;;;;;;-4.41;100.00;101774.20;109290;1253;67020;-54
2024/02/17 07:34:08;;;;;;;;;;;;;;;-4.47;100.00;101766.57;109198;1253;72737;-54
2024/02/17 07:36:36;;;;;;;;;;;;;;;-4.43;100.00;101769.70;109261;1253;59996;-59
2024/02/17 07:39:05;;;;;;;;;;;;;;;-4.41;100.00;101765.52;109179;1253;59702;-54
2024/02/17 07:41:33;;;;;;;;;;;;;;;-4.36;100.00;101764.17;109312;1253;74244;-54
2024/02/17 07:44:00;;;;;;;;;;;;;;;-4.36;100.00;101762.16;109306;1253;65679;-54
2024/02/17 07:46:28;;;;;;;;;;;;;;;-4.28;100.00;101763.23;109168;1253;71377;-54
2024/02/17 07:48:55;;;;;;;;;;;;;;;-4.17;100.00;101763.71;109140;1253;59692;-55
2024/02/17 07:51:23;;;;;;;;;;;;;;;-4.12;100.00;101767.96;109231;1253;60063;-54
2024/02/17 07:53:50;;;;;;;;;;;;;;;-4.14;100.00;101769.08;109204;1253;75557;-54
2024/02/17 07:56:18;;;;;;;;;;;;;;;-4.16;100.00;101767.93;109338;1253;67077;-55
2024/02/17 07:58:45;;;;;;;;;;;;;;;-4.10;100.00;101767.58;109146;1253;73540;-54
2024/02/17 08:01:13;;;;;;;;;;;;;;;-3.96;100.00;101770.33;109298;1256;60174;-54
2024/02/17 08:03:41;;;;;;;;;;;;;;;-3.88;100.00;101771.40;109333;1253;60132;-55
2024/02/17 08:06:09;;;;;;;;;;;;;;;-3.88;100.00;101768.37;109205;1253;73439;-54
2024/02/17 08:08:37;;;;;;;;;;;;;;;-3.81;100.00;101769.11;109304;1253;66119;-59
2024/02/17 08:11:04;;;;;;;;;;;;;;;-3.70;100.00;101768.58;109279;1253;73568;-55
2024/02/17 08:13:32;;;;;;;;;;;;;;;-3.59;100.00;101771.60;109296;1254;60159;-54
2024/02/17 08:16:00;;;;;;;;;;;;;;;-3.54;100.00;101770.03;109261;1253;59979;-54
2024/02/17 08:18:28;;;;;;;;;;;;;;;-3.44;100.00;101772.90;109196;1253;74251;-61
2024/02/17 08:20:58;;;;;;;;;;;;;;;-3.34;100.00;101766.75;109238;1253;65806;-54
2024/02/17 08:23:26;;;;;;;;;;;;;;;-3.24;100.00;101768.25;109265;1252;72749;-54
2024/02/17 08:25:54;;;;;;;;;;;;;;;-3.23;100.00;101764.10;109251;1252;60205;-55
2024/02/17 08:28:22;;;;;;;;;;;;;;;-3.17;100.00;101769.02;109246;1257;60121;-61
2024/02/17 08:30:49;;;;;;;;;;;;;;;-3.16;100.00;101763.20;109302;1252;75487;-54
2024/02/17 08:33:17;;;;;;;;;;;;;;;-3.08;100.00;101766.48;109362;1253;67446;-55
2024/02/17 08:35:45;;;;;;;;;;;;;;;-3.00;100.00;101764.11;109353;1252;71970;-54
2024/02/17 08:38:12;;;;;;;;;;;;;;;-2.99;100.00;101767.30;109307;1254;59759;-61
2024/02/17 08:40:40;;;;;;;;;;;;;;;-2.99;100.00;101770.36;109317;1252;59784;-54
2024/02/17 08:43:08;;;;;;;;;;;;;;;-2.99;100.00;101767.31;109350;1253;75535;-57
2024/02/17 08:45:35;;;;;;;;;;;;;;;-2.94;100.00;101764.23;109342;1251;66010;-55
2024/02/17 08:48:03;;;;;;;;;;;;;;;-2.81;100.00;101761.16;109299;1253;71391;-54
2024/02/17 08:50:30;;;;;;;;;;;;;;;-2.70;100.00;101756.32;109322;1252;60112;-61
2024/02/17 08:52:58;;;;;;;;;;;;;;;-2.56;100.00;101755.56;109337;1252;59804;-54
2024/02/17 08:55:25;;;;;;;;;;;;;;;-2.38;100.00;101755.70;109344;1252;75679;-55
2024/02/17 08:57:53;;;;;;;;;;;;;;;-2.27;100.00;101755.90;109350;1252;66949;-55
2024/02/17 09:00:23;;;;;;;;;;;;;;;-2.09;100.00;101752.96;109323;1253;72760;-55
2024/02/17 09:02:50;;;;;;;;;;;;;;;-1.87;100.00;101748.98;109325;1254;60275;-55
2024/02/17 09:05:18;;;;;;;;;;;;;;;-1.64;100.00;101745.39;109332;1252;59881;-54
2024/02/17 09:07:45;;;;;;;;;;;;;;;-1.35;100.00;101744.10;109311;1253;73933;-54
2024/02/17 09:10:15;;;;;;;;;;;;;;;-1.13;100.00;101730.83;109346;1252;66990;-55
2024/02/17 09:12:43;;;;;;;;;;;;;;;-0.98;100.00;101727.89;109341;1252;72787;-57
2024/02/17 09:15:10;;;;;;;;;;;;;;;-0.84;100.00;101728.59;109330;1254;59757;-57
2024/02/17 09:17:38;;;;;;;;;;;;;;;-0.71;100.00;101726.75;109356;1252;60247;-56
2024/02/17 09:20:09;;;;;;;;;;;;;;;-0.54;100.00;101724.56;109370;1252;74267;-57
2024/02/17 09:22:37;;;;;;;;;;;;;;;-0.39;100.00;101722.64;109347;1252;64858;-57
2024/02/17 09:25:05;;;;;;;;;;;;;;;-0.30;100.00;101715.83;109269;1252;71446;-62
2024/02/17 09:27:32;;;;;;;;;;;;;;;-0.12;100.00;101716.49;109308;1253;60178;-57
2024/02/17 09:30:00;;;;;;;;;;;;;;;-0.06;100.00;101720.98;109322;1252;61460;-57
2024/02/17 09:32:27;;;;;;;;;;;;;;;-0.29;100.00;101714.96;109331;1252;75461;-56
2024/02/17 09:34:55;;;;;;;;;;;;;;;-0.36;100.00;101707.10;109338;1252;67431;-56
2024/02/17 09:37:23;;;;;;;;;;;;;;;-0.08;100.00;101705.33;109327;1254;71951;-57
2024/02/17 09:39:51;;;;;;;;;;;;;;;0.08;100.00;101704.52;109330;1253;59924;-56
2024/02/17 09:42:18;;;;;;;;;;;;;;;0.03;100.00;101695.23;109373;1252;59764;-57
2024/02/17 09:44:48;;;;;;;;;;;;;;;0.16;100.00;101698.13;109385;1253;74348;-56
2024/02/17 09:47:15;;;;;;;;;;;;;;;0.34;100.00;101694.61;109283;1253;66235;-65
2024/02/17 09:49:43;;;;;;;;;;;;;;;0.42;100.00;101691.25;109320;1253;72680;-54
2024/02/17 09:52:11;;;;;;;;;;;;;;;0.46;100.00;101693.61;109152;1253;60209;-54
2024/02/17 09:54:39;;;;;;;;;;;;;;;0.44;100.00;101691.80;109170;1253;59961;-57
2024/02/17 09:57:06;;;;;;;;;;;;;;;0.44;100.00;101688.96;109323;1253;75517;-56
2024/02/17 09:59:34;;;;;;;;;;;;;;;0.43;100.00;101687.79;109153;1253;65940;-55
2024/02/17 10:02:02;;;;;;;;;;;;;;;0.44;100.00;101685.81;109299;1253;71482;-55
2024/02/17 10:04:30;;;;;;;;;;;;;;;0.46;100.00;101680.27;109295;1253;61443;-56
2024/02/17 10:06:59;;;;;;;;;;;;;;;0.54;100.00;101674.21;109292;1253;60201;-64
2024/02/17 10:09:27;;;;;;;;;;;;;;;0.66;100.00;101677.12;109302;1253;76886;-55
2024/02/17 10:11:58;;;;;;;;;;;;;;;0.71;100.00;101670.69;109282;1253;68893;-55
2024/02/17 10:14:29;;;;;;;;;;;;;;;0.75;100.00;101665.70;109253;1253;73814;-55
2024/02/17 10:16:58;;;;;;;;;;;;;;;0.85;100.00;101667.52;109235;1253;59728;-64
2024/02/17 10:19:28;;;;;;;;;;;;;;;0.97;100.00;101661.72;109302;1253;61194;-55
2024/02/17 10:21:55;;;;;;;;;;;;;;;0.92;100.00;101658.39;109343;1253;77420;-54
2024/02/17 10:24:23;;;;;;;;;;;;;;;0.93;100.00;101654.27;109312;1253;69407;-54
2024/02/17 10:26:54;;;;;;;;;;;;;;;1.02;100.00;101660.59;109294;1252;73822;-55
2024/02/17 10:29:22;;;;;;;;;;;;;;;1.12;100.00;101657.11;109262;1253;60816;-54
2024/02/17 10:31:50;;;;;;;;;;;;;;;1.31;100.00;101653.45;109261;1257;61997;-56
2024/02/17 10:34:17;;;;;;;;;;;;;;;1.35;100.00;101655.44;109294;1253;74175;-55
2024/02/17 10:36:45;;;;;;;;;;;;;;;1.32;100.00;101653.75;109314;1253;66207;-55
2024/02/17 10:39:13;;;;;;;;;;;;;;;1.26;100.00;101649.96;109228;1257;74853;-55
2024/02/17 10:41:42;;;;;;;;;;;;;;;1.44;100.00;101647.05;109286;1253;61645;-54
2024/02/17 10:44:10;;;;;;;;;;;;;;;1.47;100.00;101645.98;109250;1253;59825;-56
2024/02/17 10:46:38;;;;;;;;;;;;;;;1.58;100.00;101645.02;109300;1252;75621;-56
2024/02/17 10:49:17;;;;;;;;;;;;;;;1.69;100.00;101640.94;109236;1253;66998;-62
2024/02/17 10:51:47;;;;;;;;;;;;;;;1.72;100.00;101639.77;109271;1253;71815;-55
2024/02/17 10:54:15;;;;;;;;;;;;;;;1.72;100.00;101638.35;109286;1253;60214;-55
2024/02/17 10:56:43;;;;;;;;;;;;;;;1.74;100.00;101638.41;109350;1253;60392;-62
2024/02/17 10:59:10;;;;;;;;;;;;;;;1.74;100.00;101639.42;109253;1253;75494;-57
2024/02/17 11:01:38;;;;;;;;;;;;;;;1.78;100.00;101636.98;109339;1253;67529;-55
2024/02/17 11:04:06;;;;;;;;;;;;;;;1.85;100.00;101633.84;109212;1254;71282;-55
2024/02/17 11:06:34;;;;;;;;;;;;;;;1.88;100.00;101635.13;109305;1253;60281;-55
2024/02/17 11:09:01;;;;;;;;;;;;;;;1.91;100.00;101631.19;109251;1252;59932;-56
2024/02/17 11:11:32;;;;;;;;;;;;;;;1.93;100.00;101631.42;109352;1253;75541;-55
2024/02/17 11:14:20;;;;;;;;;;;;;;;2.00;100.00;101627.77;109300;1253;65830;-54
2024/02/17 11:16:47;;;;;;;;;;;;;;;2.11;100.00;101624.67;109269;1253;71455;-55
2024/02/17 11:19:15;;;;;;;;;;;;;;;2.18;100.00;101619.79;109236;1254;62743;-56
2024/02/17 11:21:48;;;;;;;;;;;;;;;2.20;100.00;101616.23;109291;1253;59790;-55
2024/02/17 11:24:18;;;;;;;;;;;;;;;2.23;100.00;101618.13;108962;1252;367485;-56
2024/02/17 11:26:46;;;;;;;;;;;;;;;2.28;100.00;101616.44;109327;1253;67742;-56
2024/02/17 11:29:33;;;;;;;;;;;;;;;2.30;100.00;101611.16;109293;1255;72709;-55
2024/02/17 11:32:01;;;;;;;;;;;;;;;2.39;100.00;101608.49;109258;1254;59829;-61
2024/02/17 11:34:28;;;;;;;;;;;;;;;2.43;100.00;101608.96;109254;1253;59913;-56
2024/02/17 11:36:57;;;;;;;;;;;;;;;2.48;99.33;101608.48;109337;1253;78800;-55
2024/02/17 11:39:25;;;;;;;;;;;;;;;2.52;99.37;101603.25;109329;1253;65661;-55
2024/02/17 11:41:53;;;;;;;;;;;;;;;2.59;99.15;101599.00;109239;1254;72798;-58
2024/02/17 11:44:20;;;;;;;;;;;;;;;2.71;99.47;101598.38;109267;1258;59681;-55
2024/02/17 11:46:48;;;;;;;;;;;;;;;2.83;97.38;101592.29;109277;1254;59819;-56
2024/02/17 11:49:26;;;;;;;;;;;;;;;2.85;94.37;101589.25;109327;1254;75541;-56
2024/02/17 11:51:57;;;;;;;;;;;;;;;2.81;93.60;101585.44;109277;1253;65641;-55
2024/02/17 11:54:25;;;;;;;;;;;;;;;2.80;93.86;101587.52;109151;1254;71634;-56
2024/02/17 11:56:53;;;;;;;;;;;;;;;2.79;92.67;101585.02;109270;1258;60113;-55
2024/02/17 11:59:21;;;;;;;;;;;;;;;2.76;94.49;101583.69;109331;1254;59852;-56
2024/02/17 12:01:50;;;;;;;;;;;;;;;2.76;93.61;101584.86;109250;1254;76055;-57
2024/02/17 12:04:18;;;;;;;;;;;;;;;2.75;93.92;101586.34;109333;1258;67148;-56
2024/02/17 12:06:49;;;;;;;;;;;;;;;2.71;94.78;101582.82;109281;1253;72365;-55
2024/02/17 12:09:17;;;;;;;;;;;;;;;2.67;95.89;101580.61;109335;1252;59678;-57
2024/02/17 12:11:45;;;;;;;;;;;;;;;2.70;95.80;101580.51;109268;1258;60109;-56
2024/02/17 12:14:16;;;;;;;;;;;;;;;2.70;95.82;101580.61;109319;1258;75524;-55
2024/02/17 12:16:44;;;;;;;;;;;;;;;2.70;95.22;101577.91;109227;1253;65147;-55
2024/02/17 12:19:13;;;;;;;;;;;;;;;2.67;95.51;101577.69;109294;1253;71405;-57
2024/02/17 12:21:40;;;;;;;;;;;;;;;2.64;95.37;101573.80;109268;1253;59698;-62
2024/02/17 12:24:08;;;;;;;;;;;;;;;2.58;96.81;101584.00;109200;1254;60219;-55
2024/02/17 12:26:35;;;;;;;;;;;;;;;2.55;98.20;101584.33;109278;1254;78193;-55